createdAt,value
2018-09-20T00:00:47.920Z,97.90
2018-09-20T00:03:17.553Z,97.90
2018-09-20T00:05:47.091Z,97.90
2018-09-20T00:08:16.607Z,97.90
2018-09-20T00:10:45.940Z,98.00
2018-09-20T00:13:15.623Z,98.00
2018-09-20T00:15:45.207Z,98.10
2018-09-20T00:18:14.726Z,98.20
2018-09-20T00:20:44.254Z,98.20
2018-09-20T00:23:13.735Z,98.20
2018-09-20T00:25:43.332Z,98.30
2018-09-20T00:28:12.667Z,98.30
2018-09-20T00:30:42.170Z,98.40
2018-09-20T00:33:11.741Z,98.40
2018-09-20T00:35:41.264Z,98.50
2018-09-20T00:38:10.796Z,98.50
2018-09-20T00:40:40.210Z,98.60
2018-09-20T00:43:09.624Z,98.60
2018-09-20T00:45:38.968Z,98.60
2018-09-20T00:48:08.627Z,98.70
2018-09-20T00:50:38.869Z,98.70
2018-09-20T00:53:08.527Z,98.70
2018-09-20T00:55:38.034Z,98.90
2018-09-20T00:58:07.435Z,98.90
2018-09-20T01:00:37.038Z,99.00
2018-09-20T01:03:06.663Z,99.00
2018-09-20T01:05:36.232Z,99.10
2018-09-20T01:08:05.827Z,99.00
2018-09-20T01:10:36.159Z,99.10
2018-09-20T01:13:05.600Z,99.30
2018-09-20T01:15:35.226Z,99.30
2018-09-20T01:18:04.745Z,99.30
2018-09-20T01:20:34.299Z,99.30
2018-09-20T01:23:03.812Z,99.50
2018-09-20T01:25:33.145Z,99.40
2018-09-20T01:28:02.692Z,99.50
2018-09-20T01:30:32.199Z,99.50
2018-09-20T01:33:01.734Z,99.50
2018-09-20T01:35:31.320Z,99.60
2018-09-20T01:38:00.908Z,99.70
2018-09-20T01:40:30.453Z,99.50
2018-09-20T01:42:59.837Z,99.50
2018-09-20T01:45:29.338Z,99.60
2018-09-20T01:47:58.805Z,99.60
2018-09-20T01:50:28.125Z,99.60
2018-09-20T01:52:59.010Z,99.70
2018-09-20T01:55:28.626Z,99.70
2018-09-20T01:57:58.047Z,99.80
2018-09-20T02:00:27.448Z,99.80
2018-09-20T02:02:57.036Z,99.80
2018-09-20T02:05:26.733Z,99.80
2018-09-20T02:07:56.246Z,99.90
2018-09-20T02:10:25.869Z,99.90
2018-09-20T02:12:55.369Z,99.90
2018-09-20T02:15:24.987Z,99.90
2018-09-20T02:17:54.543Z,99.90
2018-09-20T02:20:23.907Z,99.90
2018-09-20T02:22:53.346Z,99.90
2018-09-20T02:25:22.852Z,99.90
2018-09-20T02:27:52.424Z,99.90
2018-09-20T02:30:22.151Z,99.90
2018-09-20T02:32:51.668Z,99.90
2018-09-20T02:35:21.199Z,99.90
2018-09-20T02:37:50.674Z,99.90
2018-09-20T02:40:20.185Z,99.90
2018-09-20T02:42:49.836Z,99.90
2018-09-20T02:48:15.346Z,99.90
2018-09-20T02:50:44.714Z,99.90
2018-09-20T02:53:15.438Z,99.90
2018-09-20T02:55:45.002Z,99.90
2018-09-20T02:58:14.580Z,99.90
2018-09-20T03:00:44.132Z,99.90
2018-09-20T03:03:13.655Z,99.90
2018-09-20T03:05:42.959Z,99.90
2018-09-20T03:08:12.388Z,99.90
2018-09-20T03:10:41.930Z,99.90
2018-09-20T03:13:11.353Z,99.90
2018-09-20T03:15:40.874Z,99.90
2018-09-20T03:18:10.258Z,99.90
2018-09-20T03:20:39.790Z,99.90
2018-09-20T03:23:09.391Z,99.90
2018-09-20T03:25:38.876Z,99.90
2018-09-20T03:28:08.317Z,99.90
2018-09-20T03:30:38.802Z,99.90
2018-09-20T03:33:08.314Z,99.90
2018-09-20T03:35:37.832Z,99.90
2018-09-20T03:38:07.371Z,99.90
2018-09-20T03:40:36.875Z,99.90
2018-09-20T03:43:06.394Z,99.90
2018-09-20T03:45:35.958Z,99.90
2018-09-20T03:48:05.445Z,99.90
2018-09-20T03:50:34.824Z,99.90
2018-09-20T03:53:04.301Z,99.90
2018-09-20T03:55:33.890Z,99.90
2018-09-20T03:58:03.339Z,99.90
2018-09-20T04:00:32.827Z,99.90
2018-09-20T04:03:02.215Z,99.90
2018-09-20T04:05:31.713Z,99.90
2018-09-20T04:08:01.343Z,99.90
2018-09-20T04:10:30.769Z,99.90
2018-09-20T04:13:00.329Z,99.90
2018-09-20T04:15:29.926Z,99.90
2018-09-20T04:17:59.408Z,99.90
2018-09-20T04:20:28.824Z,99.90
2018-09-20T04:22:58.495Z,99.90
2018-09-20T04:25:28.095Z,99.90
2018-09-20T04:27:57.650Z,99.90
2018-09-20T04:30:27.309Z,99.90
2018-09-20T04:32:56.320Z,99.90
2018-09-20T04:35:25.203Z,99.90
2018-09-20T04:37:54.138Z,99.90
2018-09-20T04:40:23.123Z,99.90
2018-09-20T04:42:52.614Z,99.90
2018-09-20T04:45:21.817Z,99.90
2018-09-20T04:47:51.638Z,99.90
2018-09-20T04:50:20.627Z,99.90
2018-09-20T04:52:50.475Z,99.90
2018-09-20T04:55:20.008Z,99.90
2018-09-20T04:57:49.474Z,99.90
2018-09-20T05:00:18.423Z,99.90
2018-09-20T05:02:48.034Z,99.90
2018-09-20T05:05:17.809Z,99.90
2018-09-20T05:07:47.290Z,99.90
2018-09-20T05:10:16.857Z,99.90
2018-09-20T05:12:45.786Z,99.90
2018-09-20T05:15:14.869Z,99.90
2018-09-20T05:17:43.906Z,99.90
2018-09-20T05:20:12.871Z,99.90
2018-09-20T05:22:41.744Z,99.90
2018-09-20T05:25:10.861Z,99.90
2018-09-20T05:27:39.879Z,99.90
2018-09-20T05:30:09.271Z,99.90
2018-09-20T05:32:38.176Z,99.90
2018-09-20T05:35:07.277Z,99.90
2018-09-20T05:37:36.548Z,99.90
2018-09-20T05:40:06.278Z,99.90
2018-09-20T05:42:36.762Z,99.90
2018-09-20T05:45:06.239Z,99.90
2018-09-20T05:47:35.765Z,99.90
2018-09-20T05:50:05.374Z,99.90
2018-09-20T05:52:34.258Z,99.90
2018-09-20T05:55:03.424Z,99.90
2018-09-20T05:57:32.331Z,99.90
2018-09-20T06:00:01.748Z,99.90
2018-09-20T06:02:31.578Z,99.90
2018-09-20T06:05:01.463Z,99.90
2018-09-20T06:07:30.272Z,99.90
2018-09-20T06:09:59.421Z,99.90
2018-09-20T06:12:28.932Z,99.90
2018-09-20T06:14:58.435Z,99.90
2018-09-20T06:17:27.296Z,99.90
2018-09-20T06:19:56.697Z,99.90
2018-09-20T06:22:25.799Z,99.90
2018-09-20T06:24:57.077Z,99.90
2018-09-20T06:27:26.802Z,99.90
2018-09-20T06:29:55.754Z,99.90
2018-09-20T06:32:25.773Z,99.90
2018-09-20T06:34:55.546Z,99.90
2018-09-20T06:37:25.316Z,99.90
2018-09-20T06:39:54.411Z,99.90
2018-09-20T06:42:23.951Z,99.90
2018-09-20T06:44:53.564Z,99.90
2018-09-20T06:47:22.599Z,99.90
2018-09-20T06:49:51.632Z,99.90
2018-09-20T06:52:20.510Z,99.90
2018-09-20T06:54:49.487Z,99.90
2018-09-20T06:57:19.847Z,99.90
2018-09-20T06:59:49.358Z,99.90
2018-09-20T07:02:19.004Z,99.90
2018-09-20T07:04:48.172Z,99.90
2018-09-20T07:07:17.800Z,99.90
2018-09-20T07:09:46.762Z,99.90
2018-09-20T07:12:15.755Z,99.90
2018-09-20T07:14:44.674Z,99.90
2018-09-20T07:17:13.666Z,99.90
2018-09-20T07:19:42.889Z,99.30
2018-09-20T07:22:12.058Z,98.90
2018-09-20T07:24:41.056Z,98.70
2018-09-20T07:27:09.982Z,98.10
2018-09-20T07:29:39.694Z,97.70
2018-09-20T07:32:09.304Z,97.30
2018-09-20T07:34:38.162Z,97.20
2018-09-20T07:37:07.218Z,97.00
2018-09-20T07:39:36.834Z,96.90
2018-09-20T07:42:06.090Z,96.50
2018-09-20T07:44:35.922Z,96.50
2018-09-20T07:47:05.038Z,96.40
2018-09-20T07:49:34.380Z,96.40
2018-09-20T07:52:03.416Z,96.10
2018-09-20T07:54:32.332Z,96.10
2018-09-20T07:57:01.340Z,96.00
2018-09-20T07:59:30.292Z,95.70
2018-09-20T08:01:59.377Z,95.60
2018-09-20T08:04:28.579Z,95.70
2018-09-20T08:06:57.522Z,95.20
2018-09-20T08:09:26.476Z,95.00
2018-09-20T08:11:55.515Z,95.10
2018-09-20T08:14:24.592Z,94.90
2018-09-20T08:16:53.701Z,94.80
2018-09-20T08:19:23.726Z,94.90
2018-09-20T08:21:52.802Z,95.00
2018-09-20T08:24:21.782Z,94.80
2018-09-20T08:26:51.195Z,94.80
2018-09-20T08:29:20.336Z,94.40
2018-09-20T08:31:49.304Z,94.30
2018-09-20T08:34:18.191Z,94.30
2018-09-20T08:36:47.536Z,93.80
2018-09-20T08:39:16.575Z,93.90
2018-09-20T08:41:45.651Z,93.70
2018-09-20T08:44:15.737Z,94.00
2018-09-20T08:46:44.714Z,93.30
2018-09-20T08:49:13.721Z,93.00
2018-09-20T08:51:42.628Z,93.20
2018-09-20T08:54:11.693Z,92.80
2018-09-20T08:56:40.643Z,92.60
2018-09-20T08:59:10.967Z,92.70
2018-09-20T09:01:40.047Z,92.20
2018-09-20T09:04:09.030Z,92.10
2018-09-20T09:06:38.884Z,91.90
2018-09-20T09:09:09.638Z,92.20
2018-09-20T09:11:39.285Z,92.10
2018-09-20T09:14:08.812Z,91.50
2018-09-20T09:16:37.790Z,91.60
2018-09-20T09:19:06.920Z,91.10
2018-09-20T09:21:36.804Z,91.00
2018-09-20T09:24:05.923Z,91.10
2018-09-20T09:26:34.951Z,91.00
2018-09-20T09:29:04.443Z,91.00
2018-09-20T09:31:33.420Z,90.60
2018-09-20T09:34:03.079Z,90.90
2018-09-20T09:36:33.893Z,90.60
2018-09-20T09:39:03.936Z,90.20
2018-09-20T09:41:32.798Z,90.10
2018-09-20T09:44:01.773Z,90.20
2018-09-20T09:46:30.811Z,90.10
2018-09-20T09:49:00.295Z,89.70
2018-09-20T09:51:29.935Z,89.90
2018-09-20T09:53:59.373Z,87.80
2018-09-20T09:56:28.844Z,88.40
2018-09-20T09:58:57.919Z,88.50
2018-09-20T10:01:27.050Z,87.90
2018-09-20T10:03:57.109Z,88.30
2018-09-20T10:06:26.092Z,87.50
2018-09-20T10:08:55.082Z,86.90
2018-09-20T10:11:25.544Z,86.60
2018-09-20T10:13:54.597Z,86.10
2018-09-20T10:16:24.470Z,86.00
2018-09-20T10:18:53.423Z,86.40
2018-09-20T10:21:22.396Z,85.80
2018-09-20T10:23:51.328Z,86.20
2018-09-20T10:26:20.560Z,86.40
2018-09-20T10:28:49.607Z,86.30
2018-09-20T10:31:18.518Z,86.20
2018-09-20T10:33:47.702Z,85.40
2018-09-20T10:36:16.728Z,84.70
2018-09-20T10:38:45.778Z,84.20
2018-09-20T10:41:15.536Z,83.90
2018-09-20T10:43:44.590Z,83.30
2018-09-20T10:46:13.706Z,83.90
2018-09-20T10:48:42.646Z,83.50
2018-09-20T10:51:11.607Z,83.60
2018-09-20T10:53:40.657Z,83.80
2018-09-20T10:56:10.133Z,83.60
2018-09-20T10:58:39.202Z,83.80
2018-09-20T11:01:08.912Z,84.50
2018-09-20T11:03:38.621Z,83.70
2018-09-20T11:06:07.808Z,83.10
2018-09-20T11:08:37.391Z,82.00
2018-09-20T11:11:06.919Z,82.40
2018-09-20T11:13:36.137Z,81.10
2018-09-20T11:16:05.355Z,79.90
2018-09-20T11:18:34.356Z,78.80
2018-09-20T11:21:03.504Z,79.00
2018-09-20T11:23:32.598Z,79.00
2018-09-20T11:26:01.624Z,79.20
2018-09-20T11:28:30.783Z,78.80
2018-09-20T11:30:59.641Z,79.40
2018-09-20T11:33:28.761Z,80.30
2018-09-20T11:35:57.770Z,78.30
2018-09-20T11:38:26.776Z,77.60
2018-09-20T11:40:55.700Z,77.20
2018-09-20T11:43:24.729Z,77.50
2018-09-20T11:45:53.893Z,77.80
2018-09-20T11:48:23.016Z,77.10
2018-09-20T11:50:52.139Z,78.80
2018-09-20T11:53:21.524Z,76.80
2018-09-20T11:55:50.751Z,77.00
2018-09-20T11:58:20.397Z,76.60
2018-09-20T12:00:49.335Z,75.70
2018-09-20T12:03:18.826Z,75.50
2018-09-20T12:05:48.460Z,76.00
2018-09-20T12:08:18.290Z,75.70
2018-09-20T12:10:47.534Z,75.90
2018-09-20T12:13:16.457Z,76.60
2018-09-20T12:15:45.750Z,76.80
2018-09-20T12:18:14.987Z,75.20
2018-09-20T12:20:44.071Z,75.50
2018-09-20T12:23:13.345Z,74.90
2018-09-20T12:25:42.547Z,72.70
2018-09-20T12:28:11.574Z,71.70
2018-09-20T12:30:40.765Z,71.90
2018-09-20T12:33:10.519Z,72.90
2018-09-20T12:35:39.618Z,73.50
2018-09-20T12:38:09.296Z,73.80
2018-09-20T12:40:38.414Z,72.70
2018-09-20T12:43:07.426Z,73.30
2018-09-20T12:45:36.412Z,72.70
2018-09-20T12:48:05.684Z,72.30
2018-09-20T12:50:34.689Z,71.50
2018-09-20T12:53:03.796Z,72.10
2018-09-20T12:55:32.925Z,72.00
2018-09-20T12:58:02.163Z,72.80
2018-09-20T13:00:32.177Z,72.40
2018-09-20T13:03:01.288Z,72.40
2018-09-20T13:05:31.189Z,72.50
2018-09-20T13:08:00.222Z,72.10
2018-09-20T13:10:29.547Z,71.60
2018-09-20T13:12:58.700Z,71.70
2018-09-20T13:15:27.702Z,71.80
2018-09-20T13:17:57.220Z,72.30
2018-09-20T13:20:26.276Z,71.90
2018-09-20T13:22:55.744Z,71.50
2018-09-20T13:25:24.972Z,71.30
2018-09-20T13:27:54.009Z,69.40
2018-09-20T13:30:23.053Z,69.60
2018-09-20T13:32:52.262Z,69.50
2018-09-20T13:35:21.600Z,70.90
2018-09-20T13:37:50.718Z,71.70
2018-09-20T13:40:19.767Z,70.70
2018-09-20T13:42:49.536Z,70.40
2018-09-20T13:45:19.157Z,69.70
2018-09-20T13:47:48.526Z,70.10
2018-09-20T13:50:18.413Z,71.00
2018-09-20T13:52:47.980Z,71.30
2018-09-20T13:55:17.918Z,71.70
2018-09-20T13:57:47.450Z,72.20
2018-09-20T14:00:17.206Z,71.80
2018-09-20T14:02:46.284Z,73.00
2018-09-20T14:05:15.641Z,71.80
2018-09-20T14:07:44.536Z,72.70
2018-09-20T14:10:14.179Z,72.30
2018-09-20T14:12:44.532Z,70.80
2018-09-20T14:15:13.718Z,70.50
2018-09-20T14:17:42.889Z,70.60
2018-09-20T14:20:12.515Z,70.10
2018-09-20T14:22:41.530Z,69.20
2018-09-20T14:25:10.519Z,69.60
2018-09-20T14:27:40.518Z,70.80
2018-09-20T14:30:10.656Z,70.40
2018-09-20T14:32:39.641Z,70.70
2018-09-20T14:35:09.551Z,69.70
2018-09-20T14:37:38.551Z,68.90
2018-09-20T14:40:07.569Z,69.10
2018-09-20T14:42:36.603Z,70.50
2018-09-20T14:45:06.039Z,70.60
2018-09-20T14:47:35.885Z,69.30
2018-09-20T14:50:04.985Z,69.10
2018-09-20T14:52:35.004Z,69.40
2018-09-20T14:55:04.611Z,69.40
2018-09-20T14:57:34.435Z,70.60
2018-09-20T15:00:03.593Z,67.60
2018-09-20T15:02:32.501Z,67.90
2018-09-20T15:05:01.690Z,68.70
2018-09-20T15:07:31.832Z,68.70
2018-09-20T15:10:00.955Z,69.00
2018-09-20T15:12:30.198Z,68.70
2018-09-20T15:14:59.311Z,69.40
2018-09-20T15:17:28.219Z,69.30
2018-09-20T15:19:57.308Z,69.50
2018-09-20T15:22:26.519Z,69.30
2018-09-20T15:24:55.839Z,69.90
2018-09-20T15:27:24.849Z,67.40
2018-09-20T15:29:54.603Z,66.80
2018-09-20T15:32:23.618Z,67.30
2018-09-20T15:34:52.688Z,67.10
2018-09-20T15:37:21.715Z,68.40
2018-09-20T15:39:50.861Z,67.60
2018-09-20T15:42:21.025Z,68.20
2018-09-20T15:44:50.306Z,68.70
2018-09-20T15:47:19.484Z,68.10
2018-09-20T15:49:49.509Z,68.00
2018-09-20T15:52:18.623Z,68.20
2018-09-20T15:54:47.827Z,68.70
2018-09-20T15:57:17.629Z,68.60
2018-09-20T15:59:46.894Z,68.80
2018-09-20T16:02:15.894Z,68.70
2018-09-20T16:04:44.920Z,69.10
2018-09-20T16:07:14.039Z,68.60
2018-09-20T16:09:46.158Z,68.80
2018-09-20T16:12:15.277Z,68.80
2018-09-20T16:14:44.894Z,69.20
2018-09-20T16:17:14.908Z,69.70
2018-09-20T16:19:43.845Z,69.70
2018-09-20T16:22:12.951Z,69.80
2018-09-20T16:24:41.973Z,70.10
2018-09-20T16:27:11.576Z,70.00
2018-09-20T16:30:06.092Z,70.10
2018-09-20T16:33:48.456Z,70.00
2018-09-20T16:36:26.207Z,70.60
2018-09-20T16:39:01.566Z,70.60
2018-09-20T16:41:36.318Z,72.30
2018-09-20T16:44:05.382Z,71.70
2018-09-20T16:46:34.458Z,72.20
2018-09-20T16:49:05.348Z,72.20
2018-09-20T16:51:34.339Z,72.10
2018-09-20T16:54:04.394Z,72.50
2018-09-20T16:56:34.448Z,72.70
2018-09-20T16:59:03.468Z,72.60
2018-09-20T17:01:32.386Z,72.80
2018-09-20T17:04:02.143Z,73.40
2018-09-20T17:06:31.112Z,74.10
2018-09-20T17:09:00.324Z,74.60
2018-09-20T17:11:29.316Z,75.60
2018-09-20T17:13:58.668Z,77.10
2018-09-20T17:16:28.128Z,77.20
2018-09-20T17:18:57.845Z,76.50
2018-09-20T17:21:26.900Z,77.20
2018-09-20T17:23:55.979Z,77.70
2018-09-20T17:26:25.719Z,78.30
2018-09-20T17:28:54.726Z,79.00
2018-09-20T17:31:24.465Z,79.40
2018-09-20T17:33:53.459Z,79.60
2018-09-20T17:36:22.663Z,80.30
2018-09-20T17:38:52.610Z,80.00
2018-09-20T17:41:24.742Z,80.30
2018-09-20T17:43:56.499Z,80.70
2018-09-20T17:46:25.500Z,79.50
2018-09-20T17:48:55.140Z,80.90
2018-09-20T17:51:24.473Z,81.40
2018-09-20T17:53:54.148Z,81.70
2018-09-20T17:56:23.417Z,82.30
2018-09-20T17:58:53.345Z,82.20
2018-09-20T18:01:22.365Z,82.00
2018-09-20T18:03:52.836Z,83.30
2018-09-20T18:06:21.955Z,83.60
2018-09-20T18:08:50.868Z,84.00
2018-09-20T18:11:20.248Z,84.40
2018-09-20T18:13:49.254Z,84.60
2018-09-20T18:16:18.382Z,85.00
2018-09-20T18:18:47.690Z,85.30
2018-09-20T18:21:16.758Z,85.50
2018-09-20T18:23:45.869Z,86.20
2018-09-20T18:26:15.008Z,86.50
2018-09-20T18:28:45.254Z,87.00
2018-09-20T18:31:14.491Z,87.40
2018-09-20T18:33:43.594Z,87.50
2018-09-20T18:36:12.679Z,87.00
2018-09-20T18:38:41.816Z,87.70
2018-09-20T18:41:10.978Z,87.20
2018-09-20T18:44:02.443Z,87.70
2018-09-20T18:49:42.417Z,88.20
2018-09-20T18:52:30.987Z,88.80
2018-09-20T18:55:00.412Z,89.30
2018-09-20T18:57:29.779Z,89.70
2018-09-20T18:59:59.024Z,90.20
2018-09-20T19:02:28.456Z,90.50
2018-09-20T19:04:57.483Z,90.80
2018-09-20T19:07:27.400Z,91.00
2018-09-20T19:09:56.443Z,91.60
2018-09-20T19:12:25.622Z,91.40
2018-09-20T19:14:54.801Z,91.60
2018-09-20T19:17:24.402Z,91.60
2018-09-20T19:19:53.516Z,91.80
2018-09-20T19:22:22.665Z,92.00
2018-09-20T19:24:51.826Z,92.00
2018-09-20T19:27:21.554Z,92.30
2018-09-20T19:29:50.746Z,92.30
2018-09-20T19:32:19.873Z,92.40
2018-09-20T19:34:49.007Z,92.50
2018-09-20T19:37:18.172Z,92.50
2018-09-20T19:39:47.931Z,92.60
2018-09-20T19:42:17.861Z,92.70
2018-09-20T19:44:46.999Z,92.70
2018-09-20T19:47:17.226Z,92.80
2018-09-20T19:49:46.456Z,93.00
2018-09-20T19:52:16.208Z,93.20
2018-09-20T19:54:45.171Z,93.70
2018-09-20T19:57:14.200Z,93.30
2018-09-20T19:59:43.675Z,93.40
2018-09-20T20:02:13.128Z,93.40
2018-09-20T20:04:42.370Z,93.70
2018-09-20T20:07:11.687Z,94.00
2018-09-20T20:09:40.854Z,93.90
2018-09-20T20:12:09.977Z,94.00
2018-09-20T20:14:39.371Z,93.80
2018-09-20T20:17:08.339Z,94.10
2018-09-20T20:19:37.452Z,93.80
2018-09-20T20:22:07.091Z,93.90
2018-09-20T20:24:36.290Z,93.80
2018-09-20T20:27:05.493Z,94.00
2018-09-20T20:29:34.560Z,93.80
2018-09-20T20:32:03.651Z,93.80
2018-09-20T20:34:34.771Z,93.60
2018-09-20T20:37:04.350Z,93.60
2018-09-20T20:39:33.334Z,93.50
2018-09-20T20:42:02.515Z,93.70
2018-09-20T20:44:32.110Z,93.50
2018-09-20T20:47:01.450Z,93.30
2018-09-20T20:49:30.571Z,93.40
2018-09-20T20:52:00.137Z,92.40
2018-09-20T20:54:29.813Z,92.40
2018-09-20T20:56:59.509Z,92.20
2018-09-20T20:59:28.583Z,92.00
2018-09-20T21:01:57.778Z,91.50
2018-09-20T21:04:27.365Z,91.10
2018-09-20T21:06:57.034Z,91.00
2018-09-20T21:09:26.063Z,90.80
2018-09-20T21:11:55.996Z,90.80
2018-09-20T21:14:26.318Z,90.70
2018-09-20T21:16:55.490Z,90.70
2018-09-20T21:19:24.545Z,90.60
2018-09-20T21:21:54.766Z,90.60
2018-09-20T21:24:23.813Z,90.50
2018-09-20T21:26:52.738Z,90.50
2018-09-20T21:29:21.718Z,90.50
2018-09-20T21:31:51.340Z,90.40
2018-09-20T21:34:20.525Z,90.40
2018-09-20T21:36:50.693Z,90.50
2018-09-20T21:39:20.433Z,90.60
2018-09-20T21:41:49.497Z,90.70
2018-09-20T21:44:20.241Z,90.70
2018-09-20T21:46:49.309Z,90.70
2018-09-20T21:49:18.269Z,90.50
2018-09-20T21:51:47.279Z,90.30
2018-09-20T21:54:16.152Z,90.50
2018-09-20T21:56:45.854Z,90.50
2018-09-20T21:59:14.807Z,90.80
2018-09-20T22:01:48.940Z,90.80
2018-09-20T22:04:19.668Z,90.80
2018-09-20T22:06:48.782Z,91.10
2018-09-20T22:09:17.865Z,91.10
2018-09-20T22:11:47.597Z,91.00
2018-09-20T22:14:18.320Z,90.90
2018-09-20T22:16:47.405Z,90.70
2018-09-20T22:19:16.582Z,91.20
2018-09-20T22:21:46.187Z,91.30
2018-09-20T22:24:15.146Z,91.30
2018-09-20T22:26:45.767Z,91.60
2018-09-20T22:29:16.031Z,91.20
2018-09-20T22:31:45.000Z,91.40
2018-09-20T22:34:14.601Z,91.20
2018-09-20T22:36:44.062Z,91.40
2018-09-20T22:39:13.460Z,91.50
2018-09-20T22:41:42.962Z,91.50
2018-09-20T22:44:12.220Z,91.60
2018-09-20T22:46:41.230Z,91.70
2018-09-20T22:49:10.790Z,91.60
2018-09-20T22:51:39.816Z,91.90
2018-09-20T22:54:09.428Z,91.90
2018-09-20T22:56:40.281Z,91.90
2018-09-20T22:59:10.094Z,92.10
2018-09-20T23:01:39.551Z,91.30
2018-09-20T23:07:24.784Z,91.70
2018-09-20T23:09:53.901Z,91.60
2018-09-20T23:12:24.368Z,91.40
2018-09-20T23:14:54.010Z,91.50
2018-09-20T23:17:23.421Z,91.60
2018-09-20T23:19:53.134Z,91.40
2018-09-20T23:22:22.097Z,91.50
2018-09-20T23:24:51.658Z,91.40
2018-09-20T23:27:21.060Z,91.20
2018-09-20T23:29:50.053Z,91.20
2018-09-20T23:32:19.166Z,91.20
2018-09-20T23:34:54.573Z,91.30
2018-09-20T23:37:24.474Z,91.30
2018-09-20T23:39:56.560Z,91.20
2018-09-20T23:42:25.555Z,91.20
2018-09-20T23:44:56.019Z,91.30
2018-09-20T23:47:24.991Z,91.20
2018-09-20T23:49:54.451Z,91.20
2018-09-20T23:52:23.946Z,91.30
2018-09-20T23:54:53.897Z,91.30
2018-09-20T23:57:22.851Z,91.40
2018-09-20T23:59:52.688Z,91.60
